createdAt,value
2023-05-22T00:00:20.588Z,102128.06
2023-05-22T00:03:11.291Z,102136.69
2023-05-22T00:06:02.144Z,102141.09
2023-05-22T00:08:51.510Z,102131.19
2023-05-22T00:11:40.963Z,102131.19
2023-05-22T00:14:30.391Z,102124.16
2023-05-22T00:17:20.595Z,102129.22
2023-05-22T00:20:11.357Z,102116.19
2023-05-22T00:23:03.267Z,102130.38
2023-05-22T00:25:52.546Z,102133.41
2023-05-22T00:28:41.883Z,102118.44
2023-05-22T00:31:31.259Z,102129.81
2023-05-22T00:34:20.989Z,102124.63
2023-05-22T00:37:10.943Z,102122.97
2023-05-22T00:40:01.558Z,102131.03
2023-05-22T00:42:51.045Z,102126.66
2023-05-22T00:45:40.289Z,102123.56
2023-05-22T00:48:29.595Z,102129.09
2023-05-22T00:51:18.942Z,102131.88
2023-05-22T00:54:11.012Z,102127.47
2023-05-22T00:57:04.378Z,102129.09
2023-05-22T00:59:54.049Z,102124.59
2023-05-22T01:02:44.214Z,102131.13
2023-05-22T01:05:34.525Z,102112.88
2023-05-22T01:08:23.914Z,102122.34
2023-05-22T01:11:19.531Z,102129.66
2023-05-22T01:14:19.301Z,102120.06
2023-05-22T01:17:22.845Z,102129.31
2023-05-22T01:20:22.618Z,102124.28
2023-05-22T01:24:11.886Z,102136.34
2023-05-22T01:27:35.240Z,102119.28
2023-05-22T01:30:48.612Z,102135.06
2023-05-22T01:33:43.766Z,102118.31
2023-05-22T01:36:38.422Z,102132.31
2023-05-22T01:39:29.178Z,102123.34
2023-05-22T01:42:19.222Z,102128.38
2023-05-22T01:45:12.414Z,102124.63
2023-05-22T01:48:03.286Z,102131.94
2023-05-22T01:50:54.978Z,102124.59
2023-05-22T01:53:54.887Z,102128.47
2023-05-22T01:56:54.996Z,102134.47
2023-05-22T01:59:51.051Z,102128.56
2023-05-22T02:02:44.010Z,102132.63
2023-05-22T02:05:39.812Z,102136.03
2023-05-22T02:08:31.321Z,102134.41
2023-05-22T02:11:24.222Z,102125.13
2023-05-22T02:14:16.469Z,102128.03
2023-05-22T02:17:07.779Z,102137.25
2023-05-22T02:19:57.366Z,102140.34
2023-05-22T02:22:49.195Z,102125.69
2023-05-22T02:25:38.760Z,102135.72
2023-05-22T02:28:30.006Z,102130.78
2023-05-22T02:31:19.555Z,102130.47
2023-05-22T02:34:08.953Z,102142.41
2023-05-22T02:37:00.174Z,102136.13
2023-05-22T02:39:50.864Z,102141.47
2023-05-22T02:42:40.367Z,102143.13
2023-05-22T02:45:31.024Z,102140.78
2023-05-22T02:48:20.498Z,102155.81
2023-05-22T02:51:09.811Z,102157.78
2023-05-22T02:53:59.514Z,102164.03
2023-05-22T02:56:50.270Z,102165.03
2023-05-22T02:59:39.524Z,102151.25
2023-05-22T03:02:30.220Z,102161.72
2023-05-22T03:05:19.895Z,102158.88
2023-05-22T03:08:09.231Z,102162.56
2023-05-22T03:10:59.640Z,102151.13
2023-05-22T03:13:50.583Z,102157.06
2023-05-22T03:16:39.953Z,102157.25
2023-05-22T03:19:29.520Z,102155.63
2023-05-22T03:22:19.677Z,102157.75
2023-05-22T03:25:11.140Z,102163.06
2023-05-22T03:28:01.119Z,102166.94
2023-05-22T03:30:55.778Z,102167.03
2023-05-22T03:33:50.029Z,102165.50
2023-05-22T03:36:39.744Z,102170.72
2023-05-22T03:39:29.031Z,102149.88
2023-05-22T03:42:26.912Z,102166.38
2023-05-22T03:45:16.331Z,102176.00
2023-05-22T03:48:07.403Z,102173.09
2023-05-22T03:50:57.090Z,102189.09
2023-05-22T03:53:46.364Z,102185.91
2023-05-22T03:56:38.523Z,102187.53
2023-05-22T03:59:27.837Z,102180.16
2023-05-22T04:02:18.422Z,102191.78
2023-05-22T04:05:11.574Z,102189.91
2023-05-22T04:08:00.689Z,102197.59
2023-05-22T04:10:50.296Z,102194.59
2023-05-22T04:13:39.896Z,102201.22
2023-05-22T04:16:29.313Z,102196.91
2023-05-22T04:19:18.779Z,102201.06
2023-05-22T04:22:09.589Z,102208.59
2023-05-22T04:24:59.413Z,102211.69
2023-05-22T04:27:49.320Z,102206.31
2023-05-22T04:30:40.422Z,102209.31
2023-05-22T04:33:30.436Z,102212.88
2023-05-22T04:36:22.441Z,102212.34
2023-05-22T04:39:15.256Z,102219.03
2023-05-22T04:42:06.066Z,102221.19
2023-05-22T04:44:58.189Z,102222.63
2023-05-22T04:47:47.526Z,102232.41
2023-05-22T04:50:39.051Z,102229.75
2023-05-22T04:53:30.508Z,102231.22
2023-05-22T04:56:31.932Z,102230.97
2023-05-22T04:59:26.714Z,102240.03
2023-05-22T05:02:16.275Z,102235.50
2023-05-22T05:05:06.191Z,102240.28
2023-05-22T05:07:55.533Z,102245.94
2023-05-22T05:10:46.078Z,102251.34
2023-05-22T05:13:37.494Z,102257.00
2023-05-22T05:16:27.136Z,102253.53
2023-05-22T05:19:16.940Z,102254.25
2023-05-22T05:22:06.648Z,102245.78
2023-05-22T05:24:56.356Z,102254.13
2023-05-22T05:27:46.774Z,102245.13
2023-05-22T05:30:41.369Z,102278.53
2023-05-22T05:33:42.067Z,102278.81
2023-05-22T05:36:37.710Z,102280.47
2023-05-22T05:39:35.159Z,102281.28
2023-05-22T05:42:30.529Z,102233.97
2023-05-22T05:45:27.757Z,102278.47
2023-05-22T05:48:22.854Z,102274.38
2023-05-22T05:51:12.425Z,102280.69
2023-05-22T05:54:09.780Z,102282.84
2023-05-22T05:57:03.441Z,102285.59
2023-05-22T05:59:53.522Z,102282.50
2023-05-22T06:03:02.127Z,102289.09
2023-05-22T06:06:14.216Z,102286.56
2023-05-22T06:09:26.983Z,102290.13
2023-05-22T06:12:32.383Z,102300.13
2023-05-22T06:15:25.087Z,102305.47
2023-05-22T06:18:17.428Z,102313.06
2023-05-22T06:21:16.171Z,102301.28
2023-05-22T06:24:08.368Z,102311.72
2023-05-22T06:26:57.924Z,102317.78
2023-05-22T06:29:48.019Z,102318.16
2023-05-22T06:32:42.750Z,102314.28
2023-05-22T06:35:34.552Z,102310.50
2023-05-22T06:38:29.689Z,102315.75
2023-05-22T06:41:24.205Z,102312.16
2023-05-22T06:44:13.719Z,102318.41
2023-05-22T06:47:05.942Z,102299.44
2023-05-22T06:49:56.280Z,102324.81
2023-05-22T06:52:45.998Z,102321.88
2023-05-22T06:55:36.806Z,102319.72
2023-05-22T06:58:34.026Z,102306.78
2023-05-22T07:01:26.085Z,102320.13
2023-05-22T07:04:26.518Z,102326.59
2023-05-22T07:07:24.893Z,102327.94
2023-05-22T07:10:15.286Z,102322.00
2023-05-22T07:13:06.069Z,102329.59
2023-05-22T07:15:56.819Z,102341.25
2023-05-22T07:18:47.569Z,102343.34
2023-05-22T07:21:37.253Z,102340.59
2023-05-22T07:24:27.759Z,102339.25
2023-05-22T07:27:17.756Z,102331.84
2023-05-22T07:30:12.695Z,102343.66
2023-05-22T07:33:03.710Z,102347.44
2023-05-22T07:35:53.271Z,102339.91
2023-05-22T07:38:43.049Z,102353.75
2023-05-22T07:41:32.522Z,102347.94
2023-05-22T07:44:22.098Z,102353.66
2023-05-22T07:47:12.916Z,102360.66
2023-05-22T07:50:04.516Z,102355.28
2023-05-22T07:52:56.231Z,102353.88
2023-05-22T07:55:46.044Z,102360.31
2023-05-22T07:58:37.169Z,102366.38
2023-05-22T08:01:26.455Z,102371.00
2023-05-22T08:04:17.512Z,102372.41
2023-05-22T08:07:07.233Z,102380.66
2023-05-22T08:09:56.531Z,102380.38
2023-05-22T08:12:46.174Z,102365.25
2023-05-22T08:15:35.966Z,102369.19
2023-05-22T08:18:28.063Z,102376.16
2023-05-22T08:21:18.908Z,102366.25
2023-05-22T08:24:09.016Z,102378.56
2023-05-22T08:27:00.721Z,102371.53
2023-05-22T08:29:50.222Z,102364.09
2023-05-22T08:32:39.616Z,102373.94
2023-05-22T08:35:29.018Z,102376.41
2023-05-22T08:38:19.888Z,102379.41
2023-05-22T08:41:10.745Z,102388.97
2023-05-22T08:44:00.660Z,102383.78
2023-05-22T08:46:52.206Z,102384.13
2023-05-22T08:49:41.883Z,102391.66
2023-05-22T08:52:38.672Z,102372.09
2023-05-22T08:55:30.002Z,102381.06
2023-05-22T08:58:19.764Z,102377.00
2023-05-22T09:01:10.218Z,102381.91
2023-05-22T09:04:03.084Z,102376.13
2023-05-22T09:06:52.926Z,102367.13
2023-05-22T09:09:42.506Z,102371.47
2023-05-22T09:12:34.054Z,102369.75
2023-05-22T09:15:24.649Z,102378.78
2023-05-22T09:18:14.126Z,102382.94
2023-05-22T09:21:06.834Z,102384.84
2023-05-22T09:24:02.401Z,102374.16
2023-05-22T09:26:53.087Z,102373.28
2023-05-22T09:29:54.839Z,102370.44
2023-05-22T09:32:45.027Z,102373.34
2023-05-22T09:35:34.667Z,102365.78
2023-05-22T09:38:27.908Z,102359.78
2023-05-22T09:41:23.613Z,102370.84
2023-05-22T09:44:17.763Z,102372.53
2023-05-22T09:47:10.059Z,102378.47
2023-05-22T09:50:00.199Z,102368.00
2023-05-22T09:52:52.246Z,102352.84
2023-05-22T09:55:41.684Z,102364.53
2023-05-22T09:58:35.016Z,102357.81
2023-05-22T10:01:26.222Z,102359.28
2023-05-22T10:04:19.822Z,102362.03
2023-05-22T10:07:11.719Z,102371.16
2023-05-22T10:10:07.906Z,102359.47
2023-05-22T10:13:02.193Z,102351.97
2023-05-22T10:15:52.199Z,102357.59
2023-05-22T10:18:42.446Z,102366.00
2023-05-22T10:21:34.046Z,102377.00
2023-05-22T10:24:24.221Z,102369.78
2023-05-22T10:27:13.622Z,102377.31
2023-05-22T10:30:29.230Z,102383.72
2023-05-22T10:33:50.422Z,102373.81
2023-05-22T10:37:13.181Z,102384.41
2023-05-22T10:40:13.859Z,102382.97
2023-05-22T10:43:05.276Z,102378.59
2023-05-22T10:46:05.240Z,102380.34
2023-05-22T10:48:56.549Z,102372.66
2023-05-22T10:51:47.350Z,102374.91
2023-05-22T10:54:45.298Z,102378.72
2023-05-22T10:57:35.691Z,102370.84
2023-05-22T11:00:26.388Z,102381.88
2023-05-22T11:03:19.598Z,102376.88
2023-05-22T11:06:29.078Z,102382.06
2023-05-22T11:09:23.020Z,102381.06
2023-05-22T11:12:19.677Z,102366.50
2023-05-22T11:15:11.039Z,102369.66
2023-05-22T11:18:06.925Z,102360.50
2023-05-22T11:20:56.451Z,102366.75
2023-05-22T11:23:46.673Z,102355.44
2023-05-22T11:26:37.999Z,102365.38
2023-05-22T11:29:28.292Z,102357.88
2023-05-22T11:32:21.032Z,102358.25
2023-05-22T11:35:14.833Z,102359.63
2023-05-22T11:38:07.422Z,102358.97
2023-05-22T11:40:56.784Z,102359.53
2023-05-22T11:43:47.540Z,102361.81
2023-05-22T11:46:36.964Z,102357.97
2023-05-22T11:49:26.766Z,102354.00
2023-05-22T11:52:18.472Z,102354.25
2023-05-22T11:55:09.339Z,102364.81
2023-05-22T11:57:59.556Z,102354.94
2023-05-22T12:00:50.323Z,102362.63
2023-05-22T12:03:39.841Z,102371.97
2023-05-22T12:06:33.343Z,102364.59
2023-05-22T12:09:23.391Z,102363.66
2023-05-22T12:12:13.053Z,102355.78
2023-05-22T12:15:02.404Z,102358.66
2023-05-22T12:17:57.271Z,102344.69
2023-05-22T12:20:46.705Z,102354.56
2023-05-22T12:23:36.033Z,102356.72
2023-05-22T12:26:25.338Z,102360.75
2023-05-22T12:29:15.325Z,102366.88
2023-05-22T12:32:06.797Z,102346.13
2023-05-22T12:35:00.546Z,102356.19
2023-05-22T12:37:50.976Z,102346.31
2023-05-22T12:40:40.605Z,102351.84
2023-05-22T12:43:30.356Z,102340.25
2023-05-22T12:46:19.842Z,102351.50
2023-05-22T12:49:09.104Z,102357.50
2023-05-22T12:51:59.824Z,102353.34
2023-05-22T12:54:49.168Z,102347.13
2023-05-22T12:57:38.614Z,102353.97
2023-05-22T13:00:28.044Z,102355.09
2023-05-22T13:03:17.745Z,102358.34
2023-05-22T13:06:07.158Z,102353.78
2023-05-22T13:08:58.784Z,102356.03
2023-05-22T13:11:48.532Z,102361.38
2023-05-22T13:14:39.034Z,102366.41
2023-05-22T13:17:28.726Z,102361.72
2023-05-22T13:20:18.049Z,102371.91
2023-05-22T13:23:07.443Z,102360.06
2023-05-22T13:25:58.091Z,102378.72
2023-05-22T13:28:47.404Z,102371.09
2023-05-22T13:31:38.061Z,102372.50
2023-05-22T13:34:27.488Z,102370.78
2023-05-22T13:37:17.290Z,102366.41
2023-05-22T13:40:08.508Z,102359.91
2023-05-22T13:42:59.305Z,102362.00
2023-05-22T13:45:48.676Z,102370.47
2023-05-22T13:48:38.078Z,102379.16
2023-05-22T13:51:27.461Z,102381.81
2023-05-22T13:54:17.110Z,102376.19
2023-05-22T13:57:07.082Z,102374.91
2023-05-22T13:59:58.213Z,102375.63
2023-05-22T14:02:48.037Z,102383.06
2023-05-22T14:05:37.926Z,102386.09
2023-05-22T14:08:27.485Z,102392.97
2023-05-22T14:11:16.746Z,102394.91
2023-05-22T14:14:06.011Z,102397.53
2023-05-22T14:16:56.814Z,102390.28
2023-05-22T14:19:51.943Z,102382.38
2023-05-22T14:22:55.871Z,102382.78
2023-05-22T14:25:48.530Z,102386.84
2023-05-22T14:28:38.020Z,102393.53
2023-05-22T14:31:30.211Z,102396.81
2023-05-22T14:34:21.102Z,102392.88
2023-05-22T14:37:10.317Z,102397.72
2023-05-22T14:39:59.706Z,102377.44
2023-05-22T14:42:50.341Z,102386.13
2023-05-22T14:45:40.758Z,102392.56
2023-05-22T14:48:30.322Z,102394.28
2023-05-22T14:51:23.495Z,102384.03
2023-05-22T14:54:14.460Z,102379.72
2023-05-22T14:57:05.388Z,102378.53
2023-05-22T14:59:54.689Z,102392.06
2023-05-22T15:02:44.207Z,102382.50
2023-05-22T15:05:33.613Z,102376.25
2023-05-22T15:08:24.617Z,102379.88
2023-05-22T15:11:13.909Z,102380.69
2023-05-22T15:14:03.323Z,102383.13
2023-05-22T15:16:52.752Z,102380.53
2023-05-22T15:19:43.920Z,102361.97
2023-05-22T15:22:33.374Z,102375.41
2023-05-22T15:25:24.629Z,102370.44
2023-05-22T15:28:14.187Z,102376.69
2023-05-22T15:31:03.543Z,102382.50
2023-05-22T15:33:52.940Z,102377.53
2023-05-22T15:36:42.534Z,102382.16
2023-05-22T15:39:31.968Z,102380.06
2023-05-22T15:42:23.144Z,102388.78
2023-05-22T15:45:13.318Z,102391.00
2023-05-22T15:48:02.770Z,102376.97
2023-05-22T15:50:52.359Z,102392.63
2023-05-22T15:53:42.184Z,102390.47
2023-05-22T15:56:31.444Z,102377.94
2023-05-22T15:59:22.163Z,102373.66
2023-05-22T16:02:11.400Z,102375.78
2023-05-22T16:05:00.752Z,102380.78
2023-05-22T16:07:50.137Z,102380.09
2023-05-22T16:10:41.908Z,102393.22
2023-05-22T16:13:31.475Z,102391.09
2023-05-22T16:16:22.284Z,102396.66
2023-05-22T16:19:29.267Z,102395.44
2023-05-22T16:22:19.515Z,102398.56
2023-05-22T16:25:11.282Z,102382.81
2023-05-22T16:28:00.813Z,102387.69
2023-05-22T16:30:50.289Z,102389.09
2023-05-22T16:33:41.023Z,102394.69
2023-05-22T16:36:30.252Z,102395.75
2023-05-22T16:39:19.748Z,102398.19
2023-05-22T16:42:09.132Z,102396.84
2023-05-22T16:44:58.600Z,102382.56
2023-05-22T16:47:47.969Z,102386.06
2023-05-22T16:50:38.709Z,102383.19
2023-05-22T16:53:28.111Z,102388.56
2023-05-22T16:56:20.437Z,102385.97
2023-05-22T16:59:09.679Z,102390.47
2023-05-22T17:01:59.098Z,102384.38
2023-05-22T17:04:49.093Z,102389.44
2023-05-22T17:07:39.847Z,102388.22
2023-05-22T17:10:29.208Z,102388.28
2023-05-22T17:13:21.043Z,102388.81
2023-05-22T17:16:10.638Z,102385.22
2023-05-22T17:19:00.079Z,102382.56
2023-05-22T17:21:49.384Z,102382.09
2023-05-22T17:24:40.106Z,102391.56
2023-05-22T17:27:35.977Z,102391.69
2023-05-22T17:30:26.052Z,102378.78
2023-05-22T17:33:15.484Z,102394.75
2023-05-22T17:36:05.168Z,102384.75
2023-05-22T17:38:54.489Z,102380.56
2023-05-22T17:41:45.218Z,102381.72
2023-05-22T17:44:34.765Z,102384.63
2023-05-22T17:47:24.047Z,102389.72
2023-05-22T17:50:13.930Z,102391.81
2023-05-22T17:53:03.404Z,102390.34
2023-05-22T17:55:53.480Z,102395.81
2023-05-22T17:58:44.299Z,102392.38
2023-05-22T18:01:33.581Z,102392.44
2023-05-22T18:04:22.933Z,102396.56
2023-05-22T18:07:12.186Z,102395.53
2023-05-22T18:10:01.508Z,102398.34
2023-05-22T18:12:50.809Z,102397.06
2023-05-22T18:15:41.734Z,102396.09
2023-05-22T18:18:37.059Z,102396.81
2023-05-22T18:21:26.416Z,102406.44
2023-05-22T18:24:16.456Z,102404.81
2023-05-22T18:27:06.245Z,102408.22
2023-05-22T18:29:56.513Z,102396.34
2023-05-22T18:32:50.025Z,102410.19
2023-05-22T18:35:41.325Z,102409.56
2023-05-22T18:38:30.816Z,102415.94
2023-05-22T18:41:31.172Z,102409.75
2023-05-22T18:44:20.748Z,102416.97
2023-05-22T18:47:10.330Z,102425.19
2023-05-22T18:50:01.224Z,102423.38
2023-05-22T18:52:50.610Z,102422.78
2023-05-22T18:55:46.562Z,102432.88
2023-05-22T18:58:37.760Z,102431.41
2023-05-22T19:01:27.136Z,102428.66
2023-05-22T19:04:18.802Z,102432.22
2023-05-22T19:07:09.633Z,102429.78
2023-05-22T19:10:00.767Z,102428.97
2023-05-22T19:12:50.125Z,102434.38
2023-05-22T19:15:39.442Z,102437.19
2023-05-22T19:18:28.924Z,102433.28
2023-05-22T19:21:18.461Z,102433.56
2023-05-22T19:24:09.804Z,102450.72
2023-05-22T19:26:59.272Z,102461.28
2023-05-22T19:29:48.650Z,102461.94
2023-05-22T19:32:38.242Z,102464.72
2023-05-22T19:35:27.624Z,102464.06
2023-05-22T19:38:16.986Z,102462.91
2023-05-22T19:41:07.650Z,102465.66
2023-05-22T19:43:57.232Z,102475.59
2023-05-22T19:46:46.717Z,102473.94
2023-05-22T19:49:37.276Z,102470.13
2023-05-22T19:52:27.004Z,102481.53
2023-05-22T19:55:16.481Z,102477.88
2023-05-22T19:58:07.263Z,102481.91
2023-05-22T20:00:56.661Z,102488.41
2023-05-22T20:04:04.778Z,102486.22
2023-05-22T20:06:54.225Z,102475.38
2023-05-22T20:09:49.388Z,102494.44
2023-05-22T20:12:39.221Z,102496.34
2023-05-22T20:15:30.678Z,102504.56
2023-05-22T20:18:20.865Z,102507.06
2023-05-22T20:21:17.247Z,102506.19
2023-05-22T20:24:17.536Z,102508.47
2023-05-22T20:27:07.238Z,102501.25
2023-05-22T20:29:59.838Z,102519.25
2023-05-22T20:32:50.688Z,102532.97
2023-05-22T20:35:41.210Z,102528.16
2023-05-22T20:38:30.896Z,102525.63
2023-05-22T20:41:20.605Z,102527.50
2023-05-22T20:44:10.689Z,102537.19
2023-05-22T20:47:03.324Z,102539.78
2023-05-22T20:49:54.300Z,102541.50
2023-05-22T20:52:45.947Z,102545.09
2023-05-22T20:55:43.173Z,102547.44
2023-05-22T20:58:33.041Z,102528.13
2023-05-22T21:01:43.705Z,102545.72
2023-05-22T21:04:33.785Z,102538.56
2023-05-22T21:07:24.718Z,102550.00
2023-05-22T21:10:14.565Z,102549.91
2023-05-22T21:13:04.156Z,102555.34
2023-05-22T21:15:53.877Z,102559.31
2023-05-22T21:18:44.223Z,102558.38
2023-05-22T21:21:33.976Z,102548.88
2023-05-22T21:24:25.458Z,102562.66
2023-05-22T21:27:15.023Z,102553.44
2023-05-22T21:30:05.354Z,102567.53
2023-05-22T21:32:55.182Z,102575.06
2023-05-22T21:35:45.071Z,102540.91
2023-05-22T21:38:34.526Z,102574.06
2023-05-22T21:41:26.151Z,102561.28
2023-05-22T21:44:16.402Z,102574.22
2023-05-22T21:47:06.662Z,102555.59
2023-05-22T21:49:56.550Z,102562.22
2023-05-22T21:52:45.886Z,102573.81
2023-05-22T21:55:36.117Z,102563.53
2023-05-22T21:58:27.107Z,102566.06
2023-05-22T22:01:16.669Z,102576.28
2023-05-22T22:04:06.494Z,102581.97
2023-05-22T22:06:56.068Z,102584.13
2023-05-22T22:09:45.974Z,102580.38
2023-05-22T22:12:35.924Z,102589.06
2023-05-22T22:15:27.159Z,102588.75
2023-05-22T22:18:17.669Z,102579.06
2023-05-22T22:21:07.186Z,102590.16
2023-05-22T22:23:56.981Z,102599.03
2023-05-22T22:26:47.961Z,102582.59
2023-05-22T22:29:38.699Z,102603.47
2023-05-22T22:32:29.843Z,102596.94
2023-05-22T22:35:20.220Z,102602.78
2023-05-22T22:38:09.625Z,102601.78
2023-05-22T22:40:59.259Z,102596.69
2023-05-22T22:43:48.519Z,102601.69
2023-05-22T22:46:40.186Z,102600.69
2023-05-22T22:49:31.710Z,102599.69
2023-05-22T22:52:21.059Z,102593.63
2023-05-22T22:55:11.241Z,102600.56
2023-05-22T22:58:01.993Z,102604.44
2023-05-22T23:00:51.347Z,102601.97
2023-05-22T23:03:40.662Z,102600.69
2023-05-22T23:06:33.050Z,102611.69
2023-05-22T23:09:22.480Z,102605.47
2023-05-22T23:12:11.859Z,102609.63
2023-05-22T23:15:01.258Z,102605.63
2023-05-22T23:17:52.030Z,102631.09
2023-05-22T23:20:41.512Z,102604.25
2023-05-22T23:23:32.291Z,102626.22
2023-05-22T23:26:21.571Z,102618.31
2023-05-22T23:29:11.080Z,102606.91
2023-05-22T23:32:00.663Z,102603.63
2023-05-22T23:34:50.175Z,102619.25
2023-05-22T23:37:39.652Z,102608.63
2023-05-22T23:40:30.478Z,102610.00
2023-05-22T23:43:20.872Z,102620.16
2023-05-22T23:46:13.243Z,102629.53
2023-05-22T23:49:02.969Z,102630.66
2023-05-22T23:51:52.318Z,102614.75
2023-05-22T23:54:41.639Z,102615.06
2023-05-22T23:57:32.422Z,102633.44
